sensor_id;sensor_type;location;lat;lon;timestamp;P1;durP1;ratioP1;P2;durP2;ratioP2
59314;SDS011;46521;50.160;20.802;2023-06-14T00:15:45;11.55;;;8.10;;
59314;SDS011;46521;50.160;20.802;2023-06-14T00:25:48;10.67;;;7.00;;
59314;SDS011;46521;50.160;20.802;2023-06-14T00:35:50;9.67;;;6.17;;
59314;SDS011;46521;50.160;20.802;2023-06-14T00:45:51;10.97;;;5.77;;
59314;SDS011;46521;50.160;20.802;2023-06-14T00:55:53;8.10;;;4.40;;
59314;SDS011;46521;50.160;20.802;2023-06-14T01:05:59;9.40;;;4.20;;
59314;SDS011;46521;50.160;20.802;2023-06-14T01:16:30;8.90;;;4.83;;
59314;SDS011;46521;50.160;20.802;2023-06-14T01:26:33;7.73;;;4.17;;
59314;SDS011;46521;50.160;20.802;2023-06-14T01:36:35;7.87;;;4.87;;
59314;SDS011;46521;50.160;20.802;2023-06-14T01:46:40;8.85;;;4.65;;
59314;SDS011;46521;50.160;20.802;2023-06-14T01:56:44;9.97;;;4.60;;
59314;SDS011;46521;50.160;20.802;2023-06-14T02:06:45;9.00;;;5.58;;
59314;SDS011;46521;50.160;20.802;2023-06-14T02:16:47;8.13;;;4.77;;
59314;SDS011;46521;50.160;20.802;2023-06-14T02:26:49;8.83;;;4.97;;
59314;SDS011;46521;50.160;20.802;2023-06-14T02:36:51;8.75;;;5.20;;
59314;SDS011;46521;50.160;20.802;2023-06-14T02:46:53;8.75;;;4.85;;
59314;SDS011;46521;50.160;20.802;2023-06-14T02:56:56;9.47;;;5.20;;
59314;SDS011;46521;50.160;20.802;2023-06-14T03:06:57;11.63;;;5.55;;
59314;SDS011;46521;50.160;20.802;2023-06-14T03:16:59;9.57;;;5.63;;
59314;SDS011;46521;50.160;20.802;2023-06-14T03:27:01;11.67;;;6.53;;
59314;SDS011;46521;50.160;20.802;2023-06-14T03:37:03;12.37;;;6.40;;
59314;SDS011;46521;50.160;20.802;2023-06-14T03:47:05;11.90;;;6.00;;
59314;SDS011;46521;50.160;20.802;2023-06-14T03:57:06;11.38;;;6.60;;
59314;SDS011;46521;50.160;20.802;2023-06-14T04:07:08;10.03;;;6.48;;
59314;SDS011;46521;50.160;20.802;2023-06-14T04:17:10;11.68;;;6.35;;
59314;SDS011;46521;50.160;20.802;2023-06-14T04:27:12;12.65;;;7.00;;
59314;SDS011;46521;50.160;20.802;2023-06-14T04:37:15;13.10;;;7.10;;
59314;SDS011;46521;50.160;20.802;2023-06-14T04:47:18;11.63;;;6.30;;
59314;SDS011;46521;50.160;20.802;2023-06-14T04:57:19;13.55;;;7.15;;
59314;SDS011;46521;50.160;20.802;2023-06-14T05:07:23;10.97;;;7.10;;
59314;SDS011;46521;50.160;20.802;2023-06-14T05:17:24;11.67;;;6.97;;
59314;SDS011;46521;50.160;20.802;2023-06-14T05:27:28;11.27;;;7.27;;
59314;SDS011;46521;50.160;20.802;2023-06-14T05:37:30;11.73;;;7.88;;
59314;SDS011;46521;50.160;20.802;2023-06-14T05:47:31;11.93;;;7.30;;
59314;SDS011;46521;50.160;20.802;2023-06-14T05:57:33;10.73;;;7.50;;
59314;SDS011;46521;50.160;20.802;2023-06-14T06:07:34;11.50;;;8.10;;
59314;SDS011;46521;50.160;20.802;2023-06-14T06:17:36;12.55;;;8.15;;
59314;SDS011;46521;50.160;20.802;2023-06-14T06:27:38;12.20;;;8.35;;
59314;SDS011;46521;50.160;20.802;2023-06-14T06:37:41;15.27;;;8.70;;
59314;SDS011;46521;50.160;20.802;2023-06-14T06:47:43;13.90;;;9.45;;
59314;SDS011;46521;50.160;20.802;2023-06-14T06:57:44;13.70;;;9.55;;
59314;SDS011;46521;50.160;20.802;2023-06-14T07:07:46;13.30;;;9.88;;
59314;SDS011;46521;50.160;20.802;2023-06-14T07:17:47;14.40;;;9.50;;
59314;SDS011;46521;50.160;20.802;2023-06-14T07:27:49;14.83;;;10.47;;
59314;SDS011;46521;50.160;20.802;2023-06-14T07:37:51;14.30;;;10.00;;
59314;SDS011;46521;50.160;20.802;2023-06-14T07:47:52;14.13;;;10.43;;
59314;SDS011;46521;50.160;20.802;2023-06-14T07:57:54;14.23;;;10.50;;
59314;SDS011;46521;50.160;20.802;2023-06-14T08:07:55;16.20;;;10.23;;
59314;SDS011;46521;50.160;20.802;2023-06-14T08:17:57;15.60;;;11.75;;
59314;SDS011;46521;50.160;20.802;2023-06-14T08:28:00;15.23;;;11.67;;
59314;SDS011;46521;50.160;20.802;2023-06-14T08:38:01;15.05;;;10.35;;
59314;SDS011;46521;50.160;20.802;2023-06-14T08:48:03;15.38;;;11.43;;
59314;SDS011;46521;50.160;20.802;2023-06-14T08:58:06;13.63;;;9.90;;
59314;SDS011;46521;50.160;20.802;2023-06-14T09:08:10;13.88;;;9.45;;
59314;SDS011;46521;50.160;20.802;2023-06-14T09:18:12;15.50;;;10.50;;
59314;SDS011;46521;50.160;20.802;2023-06-14T09:28:13;15.37;;;9.27;;
59314;SDS011;46521;50.160;20.802;2023-06-14T09:38:14;13.80;;;8.80;;
59314;SDS011;46521;50.160;20.802;2023-06-14T09:48:16;12.45;;;8.70;;
59314;SDS011;46521;50.160;20.802;2023-06-14T09:58:19;12.43;;;8.60;;
59314;SDS011;46521;50.160;20.802;2023-06-14T10:08:23;12.43;;;8.35;;
59314;SDS011;46521;50.160;20.802;2023-06-14T10:28:55;11.73;;;6.93;;
59314;SDS011;46521;50.160;20.802;2023-06-14T10:49:08;13.58;;;8.05;;
59314;SDS011;46521;50.160;20.802;2023-06-14T10:59:10;11.93;;;7.10;;
59314;SDS011;46521;50.160;20.802;2023-06-14T11:09:19;12.10;;;6.60;;
59314;SDS011;46521;50.160;20.802;2023-06-14T11:19:37;13.45;;;8.55;;
59314;SDS011;46521;50.160;20.802;2023-06-14T11:29:38;9.93;;;7.68;;
59314;SDS011;46521;50.160;20.802;2023-06-14T11:39:43;10.23;;;6.70;;
59314;SDS011;46521;50.160;20.802;2023-06-14T11:49:46;8.00;;;5.37;;
59314;SDS011;46521;50.160;20.802;2023-06-14T11:59:48;8.33;;;4.00;;
59314;SDS011;46521;50.160;20.802;2023-06-14T12:19:54;10.15;;;6.90;;
59314;SDS011;46521;50.160;20.802;2023-06-14T12:29:59;10.20;;;6.40;;
59314;SDS011;46521;50.160;20.802;2023-06-14T12:40:02;9.00;;;6.30;;
59314;SDS011;46521;50.160;20.802;2023-06-14T12:50:07;6.60;;;2.90;;
59314;SDS011;46521;50.160;20.802;2023-06-14T13:00:09;4.43;;;1.83;;
59314;SDS011;46521;50.160;20.802;2023-06-14T13:10:11;6.05;;;3.00;;
59314;SDS011;46521;50.160;20.802;2023-06-14T13:20:12;7.13;;;3.50;;
59314;SDS011;46521;50.160;20.802;2023-06-14T13:30:14;6.13;;;3.13;;
59314;SDS011;46521;50.160;20.802;2023-06-14T13:40:16;8.00;;;4.30;;
59314;SDS011;46521;50.160;20.802;2023-06-14T13:50:17;5.50;;;2.00;;
59314;SDS011;46521;50.160;20.802;2023-06-14T14:00:19;5.00;;;2.08;;
59314;SDS011;46521;50.160;20.802;2023-06-14T14:10:20;7.43;;;3.33;;
59314;SDS011;46521;50.160;20.802;2023-06-14T14:20:22;8.05;;;4.40;;
59314;SDS011;46521;50.160;20.802;2023-06-14T14:30:24;8.60;;;4.98;;
59314;SDS011;46521;50.160;20.802;2023-06-14T14:40:26;11.90;;;6.00;;
59314;SDS011;46521;50.160;20.802;2023-06-14T14:50:28;10.60;;;5.60;;
59314;SDS011;46521;50.160;20.802;2023-06-14T15:00:30;10.50;;;6.27;;
59314;SDS011;46521;50.160;20.802;2023-06-14T15:10:32;9.60;;;6.47;;
59314;SDS011;46521;50.160;20.802;2023-06-14T15:20:33;10.30;;;6.40;;
59314;SDS011;46521;50.160;20.802;2023-06-14T15:30:35;9.27;;;5.47;;
59314;SDS011;46521;50.160;20.802;2023-06-14T15:40:36;9.90;;;6.33;;
59314;SDS011;46521;50.160;20.802;2023-06-14T15:50:38;9.93;;;6.77;;
59314;SDS011;46521;50.160;20.802;2023-06-14T16:00:39;9.83;;;6.43;;
59314;SDS011;46521;50.160;20.802;2023-06-14T16:10:41;10.50;;;7.33;;
59314;SDS011;46521;50.160;20.802;2023-06-14T16:20:42;11.65;;;7.75;;
59314;SDS011;46521;50.160;20.802;2023-06-14T16:30:43;9.65;;;6.98;;
59314;SDS011;46521;50.160;20.802;2023-06-14T16:40:45;12.40;;;8.00;;
59314;SDS011;46521;50.160;20.802;2023-06-14T16:50:47;10.70;;;6.95;;
59314;SDS011;46521;50.160;20.802;2023-06-14T17:00:49;10.80;;;7.15;;
59314;SDS011;46521;50.160;20.802;2023-06-14T17:10:51;11.20;;;7.03;;
59314;SDS011;46521;50.160;20.802;2023-06-14T17:20:53;11.13;;;7.90;;
59314;SDS011;46521;50.160;20.802;2023-06-14T17:30:55;10.58;;;7.55;;
59314;SDS011;46521;50.160;20.802;2023-06-14T17:40:56;11.07;;;6.63;;
59314;SDS011;46521;50.160;20.802;2023-06-14T18:01:02;11.07;;;6.70;;
59314;SDS011;46521;50.160;20.802;2023-06-14T18:11:04;9.57;;;6.33;;
59314;SDS011;46521;50.160;20.802;2023-06-14T18:21:05;9.55;;;6.80;;
59314;SDS011;46521;50.160;20.802;2023-06-14T18:31:06;13.40;;;7.27;;
59314;SDS011;46521;50.160;20.802;2023-06-14T18:41:08;11.53;;;7.23;;
59314;SDS011;46521;50.160;20.802;2023-06-14T18:51:10;12.70;;;7.63;;
59314;SDS011;46521;50.160;20.802;2023-06-14T19:01:11;12.13;;;7.63;;
59314;SDS011;46521;50.160;20.802;2023-06-14T19:11:13;11.60;;;7.90;;
59314;SDS011;46521;50.160;20.802;2023-06-14T19:21:15;16.03;;;7.33;;
59314;SDS011;46521;50.160;20.802;2023-06-14T19:31:16;13.78;;;7.93;;
59314;SDS011;46521;50.160;20.802;2023-06-14T19:41:19;13.03;;;8.57;;
59314;SDS011;46521;50.160;20.802;2023-06-14T19:51:20;11.90;;;7.85;;
59314;SDS011;46521;50.160;20.802;2023-06-14T20:01:22;11.48;;;7.68;;
59314;SDS011;46521;50.160;20.802;2023-06-14T20:11:23;14.43;;;8.93;;
59314;SDS011;46521;50.160;20.802;2023-06-14T20:21:26;13.05;;;8.20;;
59314;SDS011;46521;50.160;20.802;2023-06-14T20:31:29;12.70;;;8.65;;
59314;SDS011;46521;50.160;20.802;2023-06-14T20:41:31;12.63;;;8.73;;
59314;SDS011;46521;50.160;20.802;2023-06-14T20:51:33;14.20;;;8.75;;
59314;SDS011;46521;50.160;20.802;2023-06-14T21:01:34;13.97;;;8.63;;
59314;SDS011;46521;50.160;20.802;2023-06-14T21:11:36;12.77;;;8.30;;
59314;SDS011;46521;50.160;20.802;2023-06-14T21:21:38;12.33;;;8.30;;
59314;SDS011;46521;50.160;20.802;2023-06-14T21:31:39;15.68;;;8.30;;
59314;SDS011;46521;50.160;20.802;2023-06-14T21:41:41;14.20;;;8.65;;
59314;SDS011;46521;50.160;20.802;2023-06-14T21:51:42;11.15;;;6.90;;
59314;SDS011;46521;50.160;20.802;2023-06-14T22:01:45;9.33;;;5.77;;
59314;SDS011;46521;50.160;20.802;2023-06-14T22:11:46;7.33;;;4.97;;
59314;SDS011;46521;50.160;20.802;2023-06-14T22:21:50;10.80;;;5.63;;
59314;SDS011;46521;50.160;20.802;2023-06-14T22:31:54;10.10;;;6.23;;
59314;SDS011;46521;50.160;20.802;2023-06-14T22:41:56;9.00;;;5.90;;
59314;SDS011;46521;50.160;20.802;2023-06-14T22:51:57;10.40;;;6.40;;
59314;SDS011;46521;50.160;20.802;2023-06-14T23:02:02;10.40;;;7.05;;
59314;SDS011;46521;50.160;20.802;2023-06-14T23:12:05;10.58;;;7.03;;
59314;SDS011;46521;50.160;20.802;2023-06-14T23:22:13;11.27;;;8.17;;
59314;SDS011;46521;50.160;20.802;2023-06-14T23:32:17;10.83;;;7.57;;
59314;SDS011;46521;50.160;20.802;2023-06-14T23:42:20;10.75;;;7.98;;
